sensor_id;sensor_type;location;lat;lon;timestamp;pressure;altitude;pressure_sealevel;temperature;humidity
57056;BME280;42945;51.718;5.324;2023-02-12T00:02:17;103578.59;;;5.85;100.00
57056;BME280;42945;51.718;5.324;2023-02-12T00:08:06;103536.97;;;5.25;100.00
57056;BME280;42945;51.718;5.324;2023-02-12T00:13:55;103597.06;;;5.88;100.00
57056;BME280;42945;51.718;5.324;2023-02-12T00:19:44;103618.88;;;5.68;100.00
57056;BME280;42945;51.718;5.324;2023-02-12T00:25:33;103596.97;;;5.72;100.00
57056;BME280;42945;51.718;5.324;2023-02-12T00:31:23;103512.22;;;5.05;100.00
57056;BME280;42945;51.718;5.324;2023-02-12T00:37:12;103951.69;;;5.80;100.00
57056;BME280;42945;51.718;5.324;2023-02-12T00:43:00;103625.00;;;5.67;100.00
57056;BME280;42945;51.718;5.324;2023-02-12T00:48:48;103670.75;;;5.80;100.00
57056;BME280;42945;51.718;5.324;2023-02-12T00:58:33;103865.72;;;6.87;100.00
57056;BME280;42945;51.718;5.324;2023-02-12T01:04:21;103596.03;;;5.67;100.00
57056;BME280;42945;51.718;5.324;2023-02-12T01:10:10;103647.91;;;5.79;100.00
57056;BME280;42945;51.718;5.324;2023-02-12T01:16:16;103611.06;;;5.81;100.00
57056;BME280;42945;51.718;5.324;2023-02-12T01:22:05;103589.97;;;5.78;100.00
57056;BME280;42945;51.718;5.324;2023-02-12T01:27:53;103617.22;;;5.80;100.00
57056;BME280;42945;51.718;5.324;2023-02-12T01:33:43;103602.19;;;5.68;100.00
57056;BME280;42945;51.718;5.324;2023-02-12T01:39:34;103589.06;;;5.76;100.00
57056;BME280;42945;51.718;5.324;2023-02-12T01:51:15;103618.75;;;5.53;100.00
57056;BME280;42945;51.718;5.324;2023-02-12T02:01:10;103628.56;;;5.76;100.00
57056;BME280;42945;51.718;5.324;2023-02-12T02:07:02;103625.91;;;5.69;100.00
57056;BME280;42945;51.718;5.324;2023-02-12T02:12:51;103508.81;;;5.17;100.00
57056;BME280;42945;51.718;5.324;2023-02-12T02:19:29;103624.19;;;5.75;100.00
57056;BME280;42945;51.718;5.324;2023-02-12T02:25:29;103591.72;;;5.77;100.00
57056;BME280;42945;51.718;5.324;2023-02-12T02:31:38;103727.34;;;6.31;100.00
57056;BME280;42945;51.718;5.324;2023-02-12T02:37:38;103607.34;;;5.51;100.00
57056;BME280;42945;51.718;5.324;2023-02-12T02:43:33;103641.63;;;5.59;100.00
57056;BME280;42945;51.718;5.324;2023-02-12T02:49:32;103464.81;;;4.97;100.00
57056;BME280;42945;51.718;5.324;2023-02-12T02:55:27;103560.03;;;5.63;100.00
57056;BME280;42945;51.718;5.324;2023-02-12T03:01:27;103628.47;;;5.63;100.00
57056;BME280;42945;51.718;5.324;2023-02-12T03:07:35;103538.56;;;5.06;100.00
57056;BME280;42945;51.718;5.324;2023-02-12T03:23:32;103563.47;;;5.51;100.00
57056;BME280;42945;51.718;5.324;2023-02-12T03:29:23;103604.75;;;5.57;100.00
57056;BME280;42945;51.718;5.324;2023-02-12T03:35:34;103502.41;;;4.85;100.00
57056;BME280;42945;51.718;5.324;2023-02-12T03:41:31;103610.06;;;5.68;100.00
57056;BME280;42945;51.718;5.324;2023-02-12T03:53:14;103591.56;;;5.56;100.00
57056;BME280;42945;51.718;5.324;2023-02-12T04:02:56;103633.53;;;5.39;100.00
57056;BME280;42945;51.718;5.324;2023-02-12T04:08:45;103835.63;;;6.56;100.00
57056;BME280;42945;51.718;5.324;2023-02-12T04:14:40;103490.81;;;4.63;100.00
57056;BME280;42945;51.718;5.324;2023-02-12T04:26:41;103674.72;;;5.32;100.00
57056;BME280;42945;51.718;5.324;2023-02-12T04:32:47;103500.09;;;5.22;100.00
57056;BME280;42945;51.718;5.324;2023-02-12T04:38:41;103676.75;;;5.61;100.00
57056;BME280;42945;51.718;5.324;2023-02-12T04:44:33;103652.91;;;5.45;100.00
57056;BME280;42945;51.718;5.324;2023-02-12T04:50:22;103540.91;;;4.77;100.00
57056;BME280;42945;51.718;5.324;2023-02-12T04:56:12;103651.19;;;5.47;100.00
57056;BME280;42945;51.718;5.324;2023-02-12T05:06:03;103628.34;;;5.46;100.00
57056;BME280;42945;51.718;5.324;2023-02-12T05:11:51;103639.78;;;5.50;100.00
57056;BME280;42945;51.718;5.324;2023-02-12T05:17:39;103504.03;;;4.72;100.00
57056;BME280;42945;51.718;5.324;2023-02-12T05:23:29;103505.72;;;4.64;100.00
57056;BME280;42945;51.718;5.324;2023-02-12T05:29:17;103658.94;;;5.33;100.00
57056;BME280;42945;51.718;5.324;2023-02-12T05:35:06;103609.88;;;5.40;100.00
57056;BME280;42945;51.718;5.324;2023-02-12T05:41:03;103533.88;;;4.76;100.00
57056;BME280;42945;51.718;5.324;2023-02-12T05:46:51;103646.81;;;5.49;100.00
57056;BME280;42945;51.718;5.324;2023-02-12T05:52:41;103519.81;;;4.69;100.00
57056;BME280;42945;51.718;5.324;2023-02-12T05:58:28;103622.97;;;5.32;100.00
57056;BME280;42945;51.718;5.324;2023-02-12T06:08:17;103650.19;;;5.36;100.00
57056;BME280;42945;51.718;5.324;2023-02-12T06:14:07;103630.81;;;5.26;100.00
57056;BME280;42945;51.718;5.324;2023-02-12T06:19:55;103651.91;;;5.32;100.00
57056;BME280;42945;51.718;5.324;2023-02-12T06:25:42;103669.47;;;5.33;100.00
57056;BME280;42945;51.718;5.324;2023-02-12T06:31:33;103655.44;;;5.35;100.00
57056;BME280;42945;51.718;5.324;2023-02-12T06:37:21;103657.13;;;5.28;100.00
57056;BME280;42945;51.718;5.324;2023-02-12T06:43:08;103663.47;;;5.47;100.00
57056;BME280;42945;51.718;5.324;2023-02-12T06:48:58;103590.03;;;4.84;100.00
57056;BME280;42945;51.718;5.324;2023-02-12T06:54:46;103680.09;;;5.46;100.00
57056;BME280;42945;51.718;5.324;2023-02-12T07:00:34;103507.56;;;4.73;100.00
57056;BME280;42945;51.718;5.324;2023-02-12T07:10:17;103667.88;;;5.54;100.00
57056;BME280;42945;51.718;5.324;2023-02-12T07:16:10;103671.47;;;5.59;100.00
57056;BME280;42945;51.718;5.324;2023-02-12T07:22:04;103689.00;;;5.57;100.00
57056;BME280;42945;51.718;5.324;2023-02-12T07:27:52;103688.88;;;5.45;100.00
57056;BME280;42945;51.718;5.324;2023-02-12T07:33:41;103584.88;;;4.93;100.00
57056;BME280;42945;51.718;5.324;2023-02-12T07:39:30;103553.25;;;4.86;100.00
57056;BME280;42945;51.718;5.324;2023-02-12T07:45:17;103533.97;;;4.88;100.00
57056;BME280;42945;51.718;5.324;2023-02-12T07:51:33;103708.13;;;5.41;100.00
57056;BME280;42945;51.718;5.324;2023-02-12T07:57:21;103897.63;;;6.13;100.00
57056;BME280;42945;51.718;5.324;2023-02-12T08:03:09;103699.34;;;5.40;100.00
57056;BME280;42945;51.718;5.324;2023-02-12T08:12:59;103681.09;;;5.57;100.00
57056;BME280;42945;51.718;5.324;2023-02-12T08:18:49;103578.75;;;4.96;100.00
57056;BME280;42945;51.718;5.324;2023-02-12T08:24:37;103615.72;;;5.08;100.00
57056;BME280;42945;51.718;5.324;2023-02-12T08:30:24;103737.38;;;5.71;100.00
57056;BME280;42945;51.718;5.324;2023-02-12T08:36:17;103625.38;;;5.09;100.00
57056;BME280;42945;51.718;5.324;2023-02-12T08:42:04;103757.75;;;5.88;100.00
57056;BME280;42945;51.718;5.324;2023-02-12T08:47:52;103599.13;;;5.14;100.00
57056;BME280;42945;51.718;5.324;2023-02-12T08:53:44;103694.47;;;5.85;100.00
57056;BME280;42945;51.718;5.324;2023-02-12T08:59:31;103727.03;;;5.93;100.00
57056;BME280;42945;51.718;5.324;2023-02-12T09:05:20;103873.59;;;6.77;100.00
57056;BME280;42945;51.718;5.324;2023-02-12T09:15:04;103733.56;;;6.41;100.00
57056;BME280;42945;51.718;5.324;2023-02-12T09:20:51;103625.81;;;5.60;100.00
57056;BME280;42945;51.718;5.324;2023-02-12T09:26:39;103679.34;;;5.59;100.00
57056;BME280;42945;51.718;5.324;2023-02-12T09:32:28;103482.41;;;5.04;100.00
57056;BME280;42945;51.718;5.324;2023-02-12T09:38:16;103742.34;;;6.39;100.00
57056;BME280;42945;51.718;5.324;2023-02-12T09:56:15;103751.19;;;6.48;100.00
57056;BME280;42945;51.718;5.324;2023-02-12T10:02:15;103711.69;;;6.52;100.00
57056;BME280;42945;51.718;5.324;2023-02-12T10:24:47;103855.41;;;7.27;100.00
57056;BME280;42945;51.718;5.324;2023-02-12T10:36:41;103726.78;;;6.86;100.00
57056;BME280;42945;51.718;5.324;2023-02-12T10:42:42;103754.06;;;6.98;100.00
57056;BME280;42945;51.718;5.324;2023-02-12T10:48:37;103689.94;;;7.14;100.00
57056;BME280;42945;51.718;5.324;2023-02-12T10:54:40;103713.69;;;7.14;100.00
57056;BME280;42945;51.718;5.324;2023-02-12T11:00:34;103792.03;;;7.21;100.00
57056;BME280;42945;51.718;5.324;2023-02-12T11:06:28;103744.41;;;7.00;100.00
57056;BME280;42945;51.718;5.324;2023-02-12T11:18:08;103751.47;;;7.04;100.00
57056;BME280;42945;51.718;5.324;2023-02-12T11:24:31;103741.00;;;7.28;100.00
57056;BME280;42945;51.718;5.324;2023-02-12T11:30:22;103760.38;;;7.27;100.00
57056;BME280;42945;51.718;5.324;2023-02-12T11:36:22;103810.66;;;7.98;100.00
57056;BME280;42945;51.718;5.324;2023-02-12T11:42:20;103722.53;;;7.27;100.00
57056;BME280;42945;51.718;5.324;2023-02-12T11:48:38;103717.28;;;7.58;100.00
57056;BME280;42945;51.718;5.324;2023-02-12T11:54:29;103610.69;;;6.89;100.00
57056;BME280;42945;51.718;5.324;2023-02-12T12:00:27;103715.53;;;7.57;100.00
57056;BME280;42945;51.718;5.324;2023-02-12T12:12:30;104116.13;;;7.56;100.00
57056;BME280;42945;51.718;5.324;2023-02-12T12:25:17;103617.81;;;7.41;100.00
57056;BME280;42945;51.718;5.324;2023-02-12T12:31:16;103672.38;;;7.32;100.00
57056;BME280;42945;51.718;5.324;2023-02-12T12:37:47;103573.78;;;6.99;100.00
57056;BME280;42945;51.718;5.324;2023-02-12T12:43:39;103665.34;;;7.74;100.00
57056;BME280;42945;51.718;5.324;2023-02-12T12:55:39;103704.94;;;7.41;100.00
57056;BME280;42945;51.718;5.324;2023-02-12T13:02:04;103656.53;;;7.59;100.00
57056;BME280;42945;51.718;5.324;2023-02-12T13:08:18;103674.13;;;7.40;100.00
57056;BME280;42945;51.718;5.324;2023-02-12T13:17:59;103612.53;;;7.27;100.00
57056;BME280;42945;51.718;5.324;2023-02-12T13:30:20;103642.44;;;7.57;100.00
57056;BME280;42945;51.718;5.324;2023-02-12T13:36:12;103647.75;;;7.45;100.00
57056;BME280;42945;51.718;5.324;2023-02-12T13:42:02;103622.19;;;7.65;100.00
57056;BME280;42945;51.718;5.324;2023-02-12T13:48:42;103654.75;;;7.67;100.00
57056;BME280;42945;51.718;5.324;2023-02-12T14:00:59;103622.16;;;7.87;100.00
57056;BME280;42945;51.718;5.324;2023-02-12T14:07:01;103273.59;;;7.59;100.00
57056;BME280;42945;51.718;5.324;2023-02-12T14:12:53;103562.34;;;7.57;100.00
57056;BME280;42945;51.718;5.324;2023-02-12T14:18:42;103615.16;;;7.61;100.00
57056;BME280;42945;51.718;5.324;2023-02-12T14:30:28;103568.47;;;7.73;100.00
57056;BME280;42945;51.718;5.324;2023-02-12T14:36:17;103616.91;;;7.81;100.00
57056;BME280;42945;51.718;5.324;2023-02-12T14:47:57;103592.28;;;7.59;100.00
57056;BME280;42945;51.718;5.324;2023-02-12T14:53:46;103668.78;;;8.22;100.00
57056;BME280;42945;51.718;5.324;2023-02-12T14:59:39;103621.34;;;7.39;100.00
57056;BME280;42945;51.718;5.324;2023-02-12T15:05:31;103598.44;;;7.25;100.00
57056;BME280;42945;51.718;5.324;2023-02-12T15:21:26;103579.06;;;7.33;100.00
57056;BME280;42945;51.718;5.324;2023-02-12T15:27:16;103429.53;;;6.55;100.00
57056;BME280;42945;51.718;5.324;2023-02-12T15:33:06;103704.88;;;7.10;100.00
57056;BME280;42945;51.718;5.324;2023-02-12T15:39:07;103560.63;;;7.09;100.00
57056;BME280;42945;51.718;5.324;2023-02-12T15:45:16;103770.13;;;7.62;100.00
57056;BME280;42945;51.718;5.324;2023-02-12T15:51:22;103592.25;;;6.97;100.00
57056;BME280;42945;51.718;5.324;2023-02-12T15:57:19;103586.09;;;6.97;100.00
57056;BME280;42945;51.718;5.324;2023-02-12T16:03:35;103542.97;;;6.82;100.00
57056;BME280;42945;51.718;5.324;2023-02-12T16:09:32;103596.63;;;6.87;100.00
57056;BME280;42945;51.718;5.324;2023-02-12T16:15:31;103541.25;;;6.83;100.00
57056;BME280;42945;51.718;5.324;2023-02-12T16:21:22;103612.44;;;6.78;100.00
57056;BME280;42945;51.718;5.324;2023-02-12T16:33:02;103554.34;;;6.57;100.00
57056;BME280;42945;51.718;5.324;2023-02-12T16:38:59;103601.81;;;6.54;100.00
57056;BME280;42945;51.718;5.324;2023-02-12T16:44:47;103568.41;;;6.51;100.00
57056;BME280;42945;51.718;5.324;2023-02-12T16:50:44;103690.78;;;7.13;100.00
57056;BME280;42945;51.718;5.324;2023-02-12T16:56:36;103458.28;;;5.70;100.00
57056;BME280;42945;51.718;5.324;2023-02-12T17:02:27;103507.41;;;5.69;100.00
57056;BME280;42945;51.718;5.324;2023-02-12T17:08:19;103594.63;;;6.16;100.00
57056;BME280;42945;51.718;5.324;2023-02-12T17:14:17;103541.03;;;6.15;100.00
57056;BME280;42945;51.718;5.324;2023-02-12T17:24:12;103606.00;;;6.11;100.00
57056;BME280;42945;51.718;5.324;2023-02-12T17:30:03;103490.63;;;5.50;100.00
57056;BME280;42945;51.718;5.324;2023-02-12T17:35:54;103591.94;;;6.13;100.00
57056;BME280;42945;51.718;5.324;2023-02-12T17:41:43;103483.63;;;5.51;100.00
57056;BME280;42945;51.718;5.324;2023-02-12T17:47:32;103592.00;;;6.22;100.00
57056;BME280;42945;51.718;5.324;2023-02-12T17:53:25;103611.13;;;5.90;100.00
57056;BME280;42945;51.718;5.324;2023-02-12T17:59:17;103660.47;;;6.11;100.00
57056;BME280;42945;51.718;5.324;2023-02-12T18:05:06;103574.41;;;6.11;100.00
57056;BME280;42945;51.718;5.324;2023-02-12T18:10:54;103846.66;;;7.41;100.00
57056;BME280;42945;51.718;5.324;2023-02-12T18:16:42;103671.88;;;6.10;100.00
57056;BME280;42945;51.718;5.324;2023-02-12T18:26:30;103664.84;;;6.12;100.00
57056;BME280;42945;51.718;5.324;2023-02-12T18:32:18;103496.69;;;5.36;100.00
57056;BME280;42945;51.718;5.324;2023-02-12T18:38:07;103677.84;;;5.90;100.00
57056;BME280;42945;51.718;5.324;2023-02-12T18:43:57;103567.22;;;5.89;100.00
57056;BME280;42945;51.718;5.324;2023-02-12T18:49:45;103609.28;;;5.81;100.00
57056;BME280;42945;51.718;5.324;2023-02-12T18:55:37;103512.19;;;5.00;100.00
57056;BME280;42945;51.718;5.324;2023-02-12T19:01:27;103506.16;;;5.15;100.00
57056;BME280;42945;51.718;5.324;2023-02-12T19:07:16;103610.19;;;5.85;100.00
57056;BME280;42945;51.718;5.324;2023-02-12T19:13:03;103599.69;;;5.88;100.00
57056;BME280;42945;51.718;5.324;2023-02-12T19:18:54;103501.88;;;5.26;100.00
57056;BME280;42945;51.718;5.324;2023-02-12T19:28:40;103460.59;;;5.19;100.00
57056;BME280;42945;51.718;5.324;2023-02-12T19:34:27;103598.75;;;5.77;100.00
57056;BME280;42945;51.718;5.324;2023-02-12T19:40:16;103487.72;;;5.09;100.00
57056;BME280;42945;51.718;5.324;2023-02-12T19:46:09;103714.22;;;6.39;100.00
57056;BME280;42945;51.718;5.324;2023-02-12T19:51:58;103587.28;;;5.68;100.00
57056;BME280;42945;51.718;5.324;2023-02-12T19:57:47;103647.84;;;5.71;100.00
57056;BME280;42945;51.718;5.324;2023-02-12T20:03:36;103571.53;;;5.75;100.00
57056;BME280;42945;51.718;5.324;2023-02-12T20:09:24;103573.16;;;5.60;100.00
57056;BME280;42945;51.718;5.324;2023-02-12T20:15:13;103717.75;;;6.38;100.00
57056;BME280;42945;51.718;5.324;2023-02-12T20:21:10;103602.13;;;5.59;100.00
57056;BME280;42945;51.718;5.324;2023-02-12T20:30:54;103567.06;;;5.63;100.00
57056;BME280;42945;51.718;5.324;2023-02-12T20:36:43;103451.72;;;5.05;100.00
57056;BME280;42945;51.718;5.324;2023-02-12T20:42:34;103563.53;;;5.61;100.00
57056;BME280;42945;51.718;5.324;2023-02-12T20:48:23;103459.66;;;5.09;100.00
57056;BME280;42945;51.718;5.324;2023-02-12T20:54:11;103712.34;;;6.20;100.00
57056;BME280;42945;51.718;5.324;2023-02-12T21:00:00;103590.81;;;5.70;100.00
57056;BME280;42945;51.718;5.324;2023-02-12T21:05:48;103632.06;;;5.71;100.00
57056;BME280;42945;51.718;5.324;2023-02-12T21:11:39;103592.56;;;5.70;100.00
57056;BME280;42945;51.718;5.324;2023-02-12T21:17:29;103459.53;;;4.96;100.00
57056;BME280;42945;51.718;5.324;2023-02-12T21:23:16;103604.66;;;5.48;100.00
57056;BME280;42945;51.718;5.324;2023-02-12T21:32:58;103597.66;;;5.48;100.00
57056;BME280;42945;51.718;5.324;2023-02-12T21:38:48;103595.19;;;5.68;100.00
57056;BME280;42945;51.718;5.324;2023-02-12T21:44:37;103551.25;;;5.63;100.00
57056;BME280;42945;51.718;5.324;2023-02-12T21:50:25;103567.84;;;5.54;100.00
57056;BME280;42945;51.718;5.324;2023-02-12T21:56:14;103874.28;;;5.67;100.00
57056;BME280;42945;51.718;5.324;2023-02-12T22:02:02;103655.22;;;6.11;100.00
57056;BME280;42945;51.718;5.324;2023-02-12T22:07:51;103577.44;;;5.41;100.00
57056;BME280;42945;51.718;5.324;2023-02-12T22:13:39;103743.31;;;6.55;100.00
57056;BME280;42945;51.718;5.324;2023-02-12T22:19:28;103591.44;;;5.39;100.00
57056;BME280;42945;51.718;5.324;2023-02-12T22:25:16;103470.81;;;4.79;100.00
57056;BME280;42945;51.718;5.324;2023-02-12T22:35:00;103572.16;;;5.40;100.00
57056;BME280;42945;51.718;5.324;2023-02-12T22:40:52;103462.88;;;4.76;100.00
57056;BME280;42945;51.718;5.324;2023-02-12T22:46:41;103583.59;;;5.43;100.00
57056;BME280;42945;51.718;5.324;2023-02-12T22:52:31;103448.75;;;4.65;100.00
57056;BME280;42945;51.718;5.324;2023-02-12T22:58:19;103509.69;;;5.17;100.00
57056;BME280;42945;51.718;5.324;2023-02-12T23:04:16;103506.28;;;5.27;100.00
57056;BME280;42945;51.718;5.324;2023-02-12T23:10:05;103720.97;;;6.00;100.00
57056;BME280;42945;51.718;5.324;2023-02-12T23:15:54;103606.28;;;5.30;100.00
57056;BME280;42945;51.718;5.324;2023-02-12T23:21:42;103535.22;;;5.29;100.00
57056;BME280;42945;51.718;5.324;2023-02-12T23:27:30;103539.69;;;5.38;100.00
57056;BME280;42945;51.718;5.324;2023-02-12T23:37:14;103439.22;;;4.73;100.00
57056;BME280;42945;51.718;5.324;2023-02-12T23:43:01;103530.78;;;5.20;100.00
57056;BME280;42945;51.718;5.324;2023-02-12T23:48:50;103509.72;;;5.23;100.00
57056;BME280;42945;51.718;5.324;2023-02-12T23:54:38;103527.28;;;5.23;100.00
